sensor_id;sensor_type;location;lat;lon;timestamp;temperature;humidity
31677;DHT22;18385;51.572;6.578;2022-08-19T00:00:34;22.90;56.50
31677;DHT22;18385;51.572;6.578;2022-08-19T00:03:00;23.00;56.60
31677;DHT22;18385;51.572;6.578;2022-08-19T00:05:26;22.90;56.70
31677;DHT22;18385;51.572;6.578;2022-08-19T00:07:51;23.00;57.40
31677;DHT22;18385;51.572;6.578;2022-08-19T00:10:18;22.90;56.80
31677;DHT22;18385;51.572;6.578;2022-08-19T00:12:44;22.90;56.90
31677;DHT22;18385;51.572;6.578;2022-08-19T00:15:14;22.90;57.00
31677;DHT22;18385;51.572;6.578;2022-08-19T00:17:42;22.90;57.10
31677;DHT22;18385;51.572;6.578;2022-08-19T00:20:10;22.90;57.10
31677;DHT22;18385;51.572;6.578;2022-08-19T00:22:37;22.80;57.20
31677;DHT22;18385;51.572;6.578;2022-08-19T00:25:05;22.80;57.30
31677;DHT22;18385;51.572;6.578;2022-08-19T00:27:31;22.70;57.40
31677;DHT22;18385;51.572;6.578;2022-08-19T00:29:57;22.70;57.50
31677;DHT22;18385;51.572;6.578;2022-08-19T00:32:24;22.70;57.60
31677;DHT22;18385;51.572;6.578;2022-08-19T00:34:51;22.70;57.70
31677;DHT22;18385;51.572;6.578;2022-08-19T00:37:19;22.60;57.70
31677;DHT22;18385;51.572;6.578;2022-08-19T00:39:49;22.60;57.80
31677;DHT22;18385;51.572;6.578;2022-08-19T00:42:16;22.60;58.10
31677;DHT22;18385;51.572;6.578;2022-08-19T00:44:42;22.50;57.90
31677;DHT22;18385;51.572;6.578;2022-08-19T00:47:08;22.50;58.00
31677;DHT22;18385;51.572;6.578;2022-08-19T00:49:40;22.50;58.00
31677;DHT22;18385;51.572;6.578;2022-08-19T00:55:07;22.40;58.20
31677;DHT22;18385;51.572;6.578;2022-08-19T00:57:40;22.30;58.20
31677;DHT22;18385;51.572;6.578;2022-08-19T01:00:14;22.30;58.40
31677;DHT22;18385;51.572;6.578;2022-08-19T01:02:41;22.30;58.50
31677;DHT22;18385;51.572;6.578;2022-08-19T01:05:11;22.30;58.50
31677;DHT22;18385;51.572;6.578;2022-08-19T01:07:39;22.20;58.50
31677;DHT22;18385;51.572;6.578;2022-08-19T01:10:08;22.20;59.20
31677;DHT22;18385;51.572;6.578;2022-08-19T01:12:34;22.10;58.60
31677;DHT22;18385;51.572;6.578;2022-08-19T01:15:00;22.10;58.70
31677;DHT22;18385;51.572;6.578;2022-08-19T01:17:27;22.10;58.90
31677;DHT22;18385;51.572;6.578;2022-08-19T01:19:53;22.10;59.00
31677;DHT22;18385;51.572;6.578;2022-08-19T01:22:25;22.10;59.00
31677;DHT22;18385;51.572;6.578;2022-08-19T01:24:52;22.10;59.10
31677;DHT22;18385;51.572;6.578;2022-08-19T01:27:18;22.00;59.00
31677;DHT22;18385;51.572;6.578;2022-08-19T01:29:44;22.00;59.10
31677;DHT22;18385;51.572;6.578;2022-08-19T01:32:15;22.00;59.20
31677;DHT22;18385;51.572;6.578;2022-08-19T01:34:42;22.00;59.30
31677;DHT22;18385;51.572;6.578;2022-08-19T01:37:14;21.90;59.30
31677;DHT22;18385;51.572;6.578;2022-08-19T01:39:40;21.90;59.40
31677;DHT22;18385;51.572;6.578;2022-08-19T01:42:07;21.90;59.50
31677;DHT22;18385;51.572;6.578;2022-08-19T01:44:38;21.80;59.60
31677;DHT22;18385;51.572;6.578;2022-08-19T01:47:05;21.80;59.70
31677;DHT22;18385;51.572;6.578;2022-08-19T01:49:31;21.80;59.70
31677;DHT22;18385;51.572;6.578;2022-08-19T01:51:59;21.80;60.40
31677;DHT22;18385;51.572;6.578;2022-08-19T01:54:25;21.70;59.80
31677;DHT22;18385;51.572;6.578;2022-08-19T01:56:53;21.70;59.90
31677;DHT22;18385;51.572;6.578;2022-08-19T01:59:23;21.70;60.00
31677;DHT22;18385;51.572;6.578;2022-08-19T02:01:49;21.60;60.00
31677;DHT22;18385;51.572;6.578;2022-08-19T02:04:15;21.60;59.90
31677;DHT22;18385;51.572;6.578;2022-08-19T02:06:41;21.50;60.00
31677;DHT22;18385;51.572;6.578;2022-08-19T02:09:08;21.60;60.30
31677;DHT22;18385;51.572;6.578;2022-08-19T02:11:35;21.50;60.30
31677;DHT22;18385;51.572;6.578;2022-08-19T02:14:03;21.40;60.40
31677;DHT22;18385;51.572;6.578;2022-08-19T02:16:30;21.40;60.60
31677;DHT22;18385;51.572;6.578;2022-08-19T02:18:56;21.40;60.70
31677;DHT22;18385;51.572;6.578;2022-08-19T02:21:23;21.30;60.80
31677;DHT22;18385;51.572;6.578;2022-08-19T02:23:49;21.30;60.80
31677;DHT22;18385;51.572;6.578;2022-08-19T02:26:16;21.30;60.90
31677;DHT22;18385;51.572;6.578;2022-08-19T02:28:42;21.30;61.00
31677;DHT22;18385;51.572;6.578;2022-08-19T02:31:14;21.30;61.10
31677;DHT22;18385;51.572;6.578;2022-08-19T02:33:40;21.20;61.20
31677;DHT22;18385;51.572;6.578;2022-08-19T02:36:07;21.20;61.20
31677;DHT22;18385;51.572;6.578;2022-08-19T02:38:34;21.20;61.20
31677;DHT22;18385;51.572;6.578;2022-08-19T02:41:07;21.20;61.20
31677;DHT22;18385;51.572;6.578;2022-08-19T02:43:34;21.30;61.30
31677;DHT22;18385;51.572;6.578;2022-08-19T02:46:20;21.20;61.20
31677;DHT22;18385;51.572;6.578;2022-08-19T02:48:48;21.20;61.40
31677;DHT22;18385;51.572;6.578;2022-08-19T02:51:19;21.20;61.40
31677;DHT22;18385;51.572;6.578;2022-08-19T02:53:45;21.20;62.40
31677;DHT22;18385;51.572;6.578;2022-08-19T02:56:11;21.20;61.60
31677;DHT22;18385;51.572;6.578;2022-08-19T02:58:37;21.20;61.60
31677;DHT22;18385;51.572;6.578;2022-08-19T03:01:03;21.20;61.70
31677;DHT22;18385;51.572;6.578;2022-08-19T03:03:29;21.30;62.60
31677;DHT22;18385;51.572;6.578;2022-08-19T03:06:10;21.40;61.60
31677;DHT22;18385;51.572;6.578;2022-08-19T03:08:39;21.40;61.70
31677;DHT22;18385;51.572;6.578;2022-08-19T03:11:05;21.30;61.70
31677;DHT22;18385;51.572;6.578;2022-08-19T03:13:31;21.30;61.80
31677;DHT22;18385;51.572;6.578;2022-08-19T03:15:57;21.30;61.90
31677;DHT22;18385;51.572;6.578;2022-08-19T03:18:23;21.20;61.90
31677;DHT22;18385;51.572;6.578;2022-08-19T03:20:51;21.30;62.10
31677;DHT22;18385;51.572;6.578;2022-08-19T03:23:19;21.30;62.10
31677;DHT22;18385;51.572;6.578;2022-08-19T03:25:47;21.40;62.10
31677;DHT22;18385;51.572;6.578;2022-08-19T03:28:14;21.40;61.80
31677;DHT22;18385;51.572;6.578;2022-08-19T03:30:42;21.30;61.90
31677;DHT22;18385;51.572;6.578;2022-08-19T03:33:09;21.30;62.00
31677;DHT22;18385;51.572;6.578;2022-08-19T03:35:35;21.30;62.10
31677;DHT22;18385;51.572;6.578;2022-08-19T03:38:05;21.30;62.20
31677;DHT22;18385;51.572;6.578;2022-08-19T03:40:32;21.20;62.10
31677;DHT22;18385;51.572;6.578;2022-08-19T03:42:57;21.10;62.20
31677;DHT22;18385;51.572;6.578;2022-08-19T03:45:23;21.00;62.40
31677;DHT22;18385;51.572;6.578;2022-08-19T03:47:49;20.90;62.50
31677;DHT22;18385;51.572;6.578;2022-08-19T03:50:15;20.90;62.70
31677;DHT22;18385;51.572;6.578;2022-08-19T03:52:41;20.90;62.80
31677;DHT22;18385;51.572;6.578;2022-08-19T03:55:08;20.90;62.90
31677;DHT22;18385;51.572;6.578;2022-08-19T03:57:34;20.90;63.00
31677;DHT22;18385;51.572;6.578;2022-08-19T04:00:00;20.90;63.00
31677;DHT22;18385;51.572;6.578;2022-08-19T04:02:26;20.90;63.10
31677;DHT22;18385;51.572;6.578;2022-08-19T04:04:53;20.90;63.10
31677;DHT22;18385;51.572;6.578;2022-08-19T04:07:22;20.90;63.20
31677;DHT22;18385;51.572;6.578;2022-08-19T04:09:48;20.80;63.20
31677;DHT22;18385;51.572;6.578;2022-08-19T04:12:14;20.90;63.30
31677;DHT22;18385;51.572;6.578;2022-08-19T04:14:40;20.80;63.20
31677;DHT22;18385;51.572;6.578;2022-08-19T04:17:06;20.90;63.30
31677;DHT22;18385;51.572;6.578;2022-08-19T04:19:33;20.80;63.40
31677;DHT22;18385;51.572;6.578;2022-08-19T04:21:59;20.70;63.40
31677;DHT22;18385;51.572;6.578;2022-08-19T04:24:25;20.60;63.60
31677;DHT22;18385;51.572;6.578;2022-08-19T04:26:51;20.50;63.70
31677;DHT22;18385;51.572;6.578;2022-08-19T04:29:20;20.50;64.00
31677;DHT22;18385;51.572;6.578;2022-08-19T04:31:47;20.40;64.10
31677;DHT22;18385;51.572;6.578;2022-08-19T04:34:16;20.40;64.10
31677;DHT22;18385;51.572;6.578;2022-08-19T04:36:43;20.40;64.30
31677;DHT22;18385;51.572;6.578;2022-08-19T04:39:18;20.30;64.20
31677;DHT22;18385;51.572;6.578;2022-08-19T04:41:45;20.30;64.30
31677;DHT22;18385;51.572;6.578;2022-08-19T04:44:31;20.30;64.30
31677;DHT22;18385;51.572;6.578;2022-08-19T04:46:57;20.20;64.50
31677;DHT22;18385;51.572;6.578;2022-08-19T04:49:23;20.20;64.60
31677;DHT22;18385;51.572;6.578;2022-08-19T04:51:52;20.30;64.60
31677;DHT22;18385;51.572;6.578;2022-08-19T04:54:19;20.20;64.50
31677;DHT22;18385;51.572;6.578;2022-08-19T04:56:51;20.20;64.40
31677;DHT22;18385;51.572;6.578;2022-08-19T04:59:18;20.20;64.50
31677;DHT22;18385;51.572;6.578;2022-08-19T05:01:46;20.20;64.60
31677;DHT22;18385;51.572;6.578;2022-08-19T05:04:17;20.30;64.70
31677;DHT22;18385;51.572;6.578;2022-08-19T05:06:43;20.30;64.80
31677;DHT22;18385;51.572;6.578;2022-08-19T05:09:09;20.30;64.70
31677;DHT22;18385;51.572;6.578;2022-08-19T05:11:36;20.40;64.80
31677;DHT22;18385;51.572;6.578;2022-08-19T05:14:04;20.50;64.90
31677;DHT22;18385;51.572;6.578;2022-08-19T05:16:31;20.60;64.50
31677;DHT22;18385;51.572;6.578;2022-08-19T05:18:56;20.60;64.70
31677;DHT22;18385;51.572;6.578;2022-08-19T05:21:42;20.70;64.70
31677;DHT22;18385;51.572;6.578;2022-08-19T05:24:28;20.80;64.60
31677;DHT22;18385;51.572;6.578;2022-08-19T05:26:55;20.80;64.50
31677;DHT22;18385;51.572;6.578;2022-08-19T05:29:24;20.90;65.30
31677;DHT22;18385;51.572;6.578;2022-08-19T05:31:51;21.00;64.60
31677;DHT22;18385;51.572;6.578;2022-08-19T05:34:19;21.00;65.30
31677;DHT22;18385;51.572;6.578;2022-08-19T05:36:47;21.00;64.50
31677;DHT22;18385;51.572;6.578;2022-08-19T05:39:16;21.10;64.10
31677;DHT22;18385;51.572;6.578;2022-08-19T05:41:48;21.10;64.40
31677;DHT22;18385;51.572;6.578;2022-08-19T05:44:15;21.10;64.40
31677;DHT22;18385;51.572;6.578;2022-08-19T05:46:44;21.20;64.40
31677;DHT22;18385;51.572;6.578;2022-08-19T05:49:13;21.30;65.30
31677;DHT22;18385;51.572;6.578;2022-08-19T05:51:39;21.30;64.40
31677;DHT22;18385;51.572;6.578;2022-08-19T05:54:06;21.40;64.40
31677;DHT22;18385;51.572;6.578;2022-08-19T05:56:33;21.40;64.40
31677;DHT22;18385;51.572;6.578;2022-08-19T05:59:00;21.40;64.40
31677;DHT22;18385;51.572;6.578;2022-08-19T06:01:26;21.50;64.40
31677;DHT22;18385;51.572;6.578;2022-08-19T06:03:52;21.60;64.50
31677;DHT22;18385;51.572;6.578;2022-08-19T06:06:19;21.60;64.40
31677;DHT22;18385;51.572;6.578;2022-08-19T06:08:45;21.70;64.50
31677;DHT22;18385;51.572;6.578;2022-08-19T06:13:47;21.80;64.60
31677;DHT22;18385;51.572;6.578;2022-08-19T06:16:17;21.80;64.50
31677;DHT22;18385;51.572;6.578;2022-08-19T06:18:49;21.90;64.50
31677;DHT22;18385;51.572;6.578;2022-08-19T06:21:17;21.90;64.40
31677;DHT22;18385;51.572;6.578;2022-08-19T06:23:44;22.00;64.20
31677;DHT22;18385;51.572;6.578;2022-08-19T06:26:14;22.00;64.30
31677;DHT22;18385;51.572;6.578;2022-08-19T06:28:40;22.10;64.30
31677;DHT22;18385;51.572;6.578;2022-08-19T06:31:32;22.20;64.30
31677;DHT22;18385;51.572;6.578;2022-08-19T06:34:00;22.30;64.20
31677;DHT22;18385;51.572;6.578;2022-08-19T06:36:31;22.40;64.20
31677;DHT22;18385;51.572;6.578;2022-08-19T06:39:12;22.40;64.10
31677;DHT22;18385;51.572;6.578;2022-08-19T06:41:41;22.40;64.00
31677;DHT22;18385;51.572;6.578;2022-08-19T06:44:16;22.50;64.00
31677;DHT22;18385;51.572;6.578;2022-08-19T06:46:42;22.50;64.00
31677;DHT22;18385;51.572;6.578;2022-08-19T06:49:09;22.40;64.00
31677;DHT22;18385;51.572;6.578;2022-08-19T06:51:36;22.50;64.10
31677;DHT22;18385;51.572;6.578;2022-08-19T06:54:02;22.60;63.90
31677;DHT22;18385;51.572;6.578;2022-08-19T06:56:30;22.70;63.90
31677;DHT22;18385;51.572;6.578;2022-08-19T06:59:02;22.70;63.90
31677;DHT22;18385;51.572;6.578;2022-08-19T07:01:28;22.80;63.90
31677;DHT22;18385;51.572;6.578;2022-08-19T07:03:54;22.90;63.90
31677;DHT22;18385;51.572;6.578;2022-08-19T07:06:20;22.90;63.70
31677;DHT22;18385;51.572;6.578;2022-08-19T07:08:47;23.00;63.60
31677;DHT22;18385;51.572;6.578;2022-08-19T07:11:15;23.10;63.70
31677;DHT22;18385;51.572;6.578;2022-08-19T07:13:41;23.20;63.60
31677;DHT22;18385;51.572;6.578;2022-08-19T07:16:19;23.20;63.50
31677;DHT22;18385;51.572;6.578;2022-08-19T07:18:49;23.30;63.40
31677;DHT22;18385;51.572;6.578;2022-08-19T07:21:21;23.40;63.30
31677;DHT22;18385;51.572;6.578;2022-08-19T07:23:49;23.40;63.30
31677;DHT22;18385;51.572;6.578;2022-08-19T07:26:21;23.50;63.30
31677;DHT22;18385;51.572;6.578;2022-08-19T07:28:48;23.60;63.20
31677;DHT22;18385;51.572;6.578;2022-08-19T07:31:17;23.60;63.20
31677;DHT22;18385;51.572;6.578;2022-08-19T07:33:48;23.70;63.00
31677;DHT22;18385;51.572;6.578;2022-08-19T07:36:16;23.80;63.00
31677;DHT22;18385;51.572;6.578;2022-08-19T07:38:46;24.00;62.80
31677;DHT22;18385;51.572;6.578;2022-08-19T07:41:19;24.00;62.40
31677;DHT22;18385;51.572;6.578;2022-08-19T07:43:45;24.10;62.60
31677;DHT22;18385;51.572;6.578;2022-08-19T07:46:12;24.20;62.20
31677;DHT22;18385;51.572;6.578;2022-08-19T07:48:40;24.30;62.20
31677;DHT22;18385;51.572;6.578;2022-08-19T07:51:07;24.40;61.90
31677;DHT22;18385;51.572;6.578;2022-08-19T07:53:34;24.40;61.70
31677;DHT22;18385;51.572;6.578;2022-08-19T07:55:59;24.30;61.70
31677;DHT22;18385;51.572;6.578;2022-08-19T07:58:34;24.30;61.90
31677;DHT22;18385;51.572;6.578;2022-08-19T08:01:00;24.50;62.10
31677;DHT22;18385;51.572;6.578;2022-08-19T08:03:26;24.50;61.70
31677;DHT22;18385;51.572;6.578;2022-08-19T08:06:13;24.60;61.60
31677;DHT22;18385;51.572;6.578;2022-08-19T08:08:58;24.60;61.60
31677;DHT22;18385;51.572;6.578;2022-08-19T08:11:57;24.60;61.50
31677;DHT22;18385;51.572;6.578;2022-08-19T08:14:30;24.60;61.50
31677;DHT22;18385;51.572;6.578;2022-08-19T08:16:56;24.60;61.40
31677;DHT22;18385;51.572;6.578;2022-08-19T08:19:24;24.60;61.40
31677;DHT22;18385;51.572;6.578;2022-08-19T08:21:51;24.50;61.30
31677;DHT22;18385;51.572;6.578;2022-08-19T08:24:18;24.50;62.20
31677;DHT22;18385;51.572;6.578;2022-08-19T08:26:44;24.60;61.30
31677;DHT22;18385;51.572;6.578;2022-08-19T08:29:10;24.60;61.30
31677;DHT22;18385;51.572;6.578;2022-08-19T08:31:37;24.70;61.30
31677;DHT22;18385;51.572;6.578;2022-08-19T08:34:03;24.70;61.60
31677;DHT22;18385;51.572;6.578;2022-08-19T08:36:29;24.80;60.90
31677;DHT22;18385;51.572;6.578;2022-08-19T08:38:59;24.80;60.70
31677;DHT22;18385;51.572;6.578;2022-08-19T08:41:34;24.90;61.10
31677;DHT22;18385;51.572;6.578;2022-08-19T08:44:02;24.90;60.40
31677;DHT22;18385;51.572;6.578;2022-08-19T08:46:41;24.90;60.30
31677;DHT22;18385;51.572;6.578;2022-08-19T08:52:03;25.20;60.00
31677;DHT22;18385;51.572;6.578;2022-08-19T08:54:42;25.30;59.80
31677;DHT22;18385;51.572;6.578;2022-08-19T08:57:20;25.40;59.40
31677;DHT22;18385;51.572;6.578;2022-08-19T08:59:49;25.50;59.10
31677;DHT22;18385;51.572;6.578;2022-08-19T09:02:17;25.50;59.10
31677;DHT22;18385;51.572;6.578;2022-08-19T09:04:43;25.60;59.20
31677;DHT22;18385;51.572;6.578;2022-08-19T09:10:02;25.80;58.50
31677;DHT22;18385;51.572;6.578;2022-08-19T09:15:31;26.00;58.30
31677;DHT22;18385;51.572;6.578;2022-08-19T09:18:02;26.10;57.80
31677;DHT22;18385;51.572;6.578;2022-08-19T09:20:29;26.00;57.50
31677;DHT22;18385;51.572;6.578;2022-08-19T09:22:57;26.00;57.50
31677;DHT22;18385;51.572;6.578;2022-08-19T09:25:24;26.00;57.50
31677;DHT22;18385;51.572;6.578;2022-08-19T09:27:51;26.00;57.30
31677;DHT22;18385;51.572;6.578;2022-08-19T09:30:27;26.00;57.20
31677;DHT22;18385;51.572;6.578;2022-08-19T09:32:53;26.10;57.20
31677;DHT22;18385;51.572;6.578;2022-08-19T09:35:22;26.20;57.00
31677;DHT22;18385;51.572;6.578;2022-08-19T09:37:48;26.30;56.90
31677;DHT22;18385;51.572;6.578;2022-08-19T09:40:15;26.40;56.70
31677;DHT22;18385;51.572;6.578;2022-08-19T09:42:42;26.50;56.60
31677;DHT22;18385;51.572;6.578;2022-08-19T09:45:09;26.50;56.40
31677;DHT22;18385;51.572;6.578;2022-08-19T09:47:36;26.50;56.30
31677;DHT22;18385;51.572;6.578;2022-08-19T09:50:08;26.60;56.20
31677;DHT22;18385;51.572;6.578;2022-08-19T09:52:34;26.60;55.90
31677;DHT22;18385;51.572;6.578;2022-08-19T09:55:08;26.60;55.90
31677;DHT22;18385;51.572;6.578;2022-08-19T09:57:34;26.70;55.70
31677;DHT22;18385;51.572;6.578;2022-08-19T10:00:00;26.70;55.70
31677;DHT22;18385;51.572;6.578;2022-08-19T10:02:26;26.80;55.50
31677;DHT22;18385;51.572;6.578;2022-08-19T10:04:52;26.90;55.40
31677;DHT22;18385;51.572;6.578;2022-08-19T10:07:37;27.00;55.30
31677;DHT22;18385;51.572;6.578;2022-08-19T10:10:07;27.10;55.20
31677;DHT22;18385;51.572;6.578;2022-08-19T10:12:34;27.20;55.00
31677;DHT22;18385;51.572;6.578;2022-08-19T10:15:00;27.40;54.60
31677;DHT22;18385;51.572;6.578;2022-08-19T10:17:27;27.50;54.60
31677;DHT22;18385;51.572;6.578;2022-08-19T10:19:53;27.50;54.20
31677;DHT22;18385;51.572;6.578;2022-08-19T10:22:19;27.60;54.00
31677;DHT22;18385;51.572;6.578;2022-08-19T10:24:48;27.70;53.90
31677;DHT22;18385;51.572;6.578;2022-08-19T10:27:15;28.00;53.70
31677;DHT22;18385;51.572;6.578;2022-08-19T10:29:41;28.20;53.40
31677;DHT22;18385;51.572;6.578;2022-08-19T10:32:08;28.30;53.10
31677;DHT22;18385;51.572;6.578;2022-08-19T10:34:37;28.30;52.60
31677;DHT22;18385;51.572;6.578;2022-08-19T10:37:04;28.30;52.20
31677;DHT22;18385;51.572;6.578;2022-08-19T10:39:34;28.00;51.60
31677;DHT22;18385;51.572;6.578;2022-08-19T10:42:06;27.70;51.80
31677;DHT22;18385;51.572;6.578;2022-08-19T10:44:32;27.50;52.20
31677;DHT22;18385;51.572;6.578;2022-08-19T10:46:58;27.60;52.50
31677;DHT22;18385;51.572;6.578;2022-08-19T10:49:24;27.70;52.00
31677;DHT22;18385;51.572;6.578;2022-08-19T10:51:50;27.60;51.70
31677;DHT22;18385;51.572;6.578;2022-08-19T10:54:34;27.40;51.50
31677;DHT22;18385;51.572;6.578;2022-08-19T10:57:18;27.50;51.80
31677;DHT22;18385;51.572;6.578;2022-08-19T10:59:44;27.50;51.60
31677;DHT22;18385;51.572;6.578;2022-08-19T11:02:10;27.60;51.70
31677;DHT22;18385;51.572;6.578;2022-08-19T11:04:37;27.80;51.50
31677;DHT22;18385;51.572;6.578;2022-08-19T11:07:04;27.90;51.50
31677;DHT22;18385;51.572;6.578;2022-08-19T11:09:31;27.80;50.40
31677;DHT22;18385;51.572;6.578;2022-08-19T11:11:57;27.80;50.70
31677;DHT22;18385;51.572;6.578;2022-08-19T11:14:23;28.00;50.60
31677;DHT22;18385;51.572;6.578;2022-08-19T11:16:51;28.10;49.80
31677;DHT22;18385;51.572;6.578;2022-08-19T11:19:19;28.20;49.50
31677;DHT22;18385;51.572;6.578;2022-08-19T11:21:47;28.00;49.30
31677;DHT22;18385;51.572;6.578;2022-08-19T11:24:18;27.90;49.10
31677;DHT22;18385;51.572;6.578;2022-08-19T11:26:46;27.80;48.70
31677;DHT22;18385;51.572;6.578;2022-08-19T11:29:14;27.80;49.00
31677;DHT22;18385;51.572;6.578;2022-08-19T11:31:43;27.90;49.10
31677;DHT22;18385;51.572;6.578;2022-08-19T11:34:10;28.10;48.90
31677;DHT22;18385;51.572;6.578;2022-08-19T11:36:39;28.40;49.50
31677;DHT22;18385;51.572;6.578;2022-08-19T11:39:07;28.50;48.40
31677;DHT22;18385;51.572;6.578;2022-08-19T11:41:34;28.50;47.80
31677;DHT22;18385;51.572;6.578;2022-08-19T11:44:00;28.50;48.40
31677;DHT22;18385;51.572;6.578;2022-08-19T11:46:26;28.50;47.80
31677;DHT22;18385;51.572;6.578;2022-08-19T11:49:00;28.60;47.70
31677;DHT22;18385;51.572;6.578;2022-08-19T11:51:27;28.60;47.20
31677;DHT22;18385;51.572;6.578;2022-08-19T11:53:54;28.60;46.80
31677;DHT22;18385;51.572;6.578;2022-08-19T11:56:21;28.40;46.50
31677;DHT22;18385;51.572;6.578;2022-08-19T11:58:47;28.60;46.90
31677;DHT22;18385;51.572;6.578;2022-08-19T12:01:16;28.80;46.50
31677;DHT22;18385;51.572;6.578;2022-08-19T12:03:43;29.00;46.10
31677;DHT22;18385;51.572;6.578;2022-08-19T12:06:19;29.20;46.00
31677;DHT22;18385;51.572;6.578;2022-08-19T12:08:49;29.40;45.70
31677;DHT22;18385;51.572;6.578;2022-08-19T12:11:15;29.60;46.20
31677;DHT22;18385;51.572;6.578;2022-08-19T12:13:41;29.60;45.40
31677;DHT22;18385;51.572;6.578;2022-08-19T12:16:11;29.80;45.00
31677;DHT22;18385;51.572;6.578;2022-08-19T12:18:42;29.90;45.70
31677;DHT22;18385;51.572;6.578;2022-08-19T12:21:10;29.80;44.50
31677;DHT22;18385;51.572;6.578;2022-08-19T12:23:39;29.60;44.30
31677;DHT22;18385;51.572;6.578;2022-08-19T12:26:05;29.60;44.10
31677;DHT22;18385;51.572;6.578;2022-08-19T12:28:31;29.50;44.10
31677;DHT22;18385;51.572;6.578;2022-08-19T12:30:57;29.50;44.10
31677;DHT22;18385;51.572;6.578;2022-08-19T12:33:23;29.60;43.80
31677;DHT22;18385;51.572;6.578;2022-08-19T12:35:52;29.70;43.80
31677;DHT22;18385;51.572;6.578;2022-08-19T12:38:18;29.90;43.50
31677;DHT22;18385;51.572;6.578;2022-08-19T12:40:48;30.00;43.10
31677;DHT22;18385;51.572;6.578;2022-08-19T12:43:15;30.20;42.60
31677;DHT22;18385;51.572;6.578;2022-08-19T12:45:45;30.30;42.60
31677;DHT22;18385;51.572;6.578;2022-08-19T12:48:11;30.50;42.40
31677;DHT22;18385;51.572;6.578;2022-08-19T12:50:39;30.70;42.30
31677;DHT22;18385;51.572;6.578;2022-08-19T12:53:05;30.80;41.70
31677;DHT22;18385;51.572;6.578;2022-08-19T12:55:31;30.80;41.60
31677;DHT22;18385;51.572;6.578;2022-08-19T12:57:57;30.70;41.10
31677;DHT22;18385;51.572;6.578;2022-08-19T13:00:23;30.50;41.00
31677;DHT22;18385;51.572;6.578;2022-08-19T13:02:51;30.40;41.30
31677;DHT22;18385;51.572;6.578;2022-08-19T13:05:23;30.60;41.40
31677;DHT22;18385;51.572;6.578;2022-08-19T13:07:52;30.90;41.00
31677;DHT22;18385;51.572;6.578;2022-08-19T13:10:21;31.10;40.70
31677;DHT22;18385;51.572;6.578;2022-08-19T13:12:49;31.10;40.70
31677;DHT22;18385;51.572;6.578;2022-08-19T13:15:17;31.30;40.70
31677;DHT22;18385;51.572;6.578;2022-08-19T13:17:49;31.60;40.90
31677;DHT22;18385;51.572;6.578;2022-08-19T13:20:18;31.90;40.80
31677;DHT22;18385;51.572;6.578;2022-08-19T13:22:44;32.40;40.60
31677;DHT22;18385;51.572;6.578;2022-08-19T13:25:12;32.80;40.30
31677;DHT22;18385;51.572;6.578;2022-08-19T13:27:38;33.10;39.70
31677;DHT22;18385;51.572;6.578;2022-08-19T13:30:06;33.50;39.80
31677;DHT22;18385;51.572;6.578;2022-08-19T13:32:50;33.70;39.00
31677;DHT22;18385;51.572;6.578;2022-08-19T13:35:35;33.80;38.50
31677;DHT22;18385;51.572;6.578;2022-08-19T13:38:00;34.00;38.70
31677;DHT22;18385;51.572;6.578;2022-08-19T13:40:30;34.30;38.20
31677;DHT22;18385;51.572;6.578;2022-08-19T13:42:59;34.70;38.40
31677;DHT22;18385;51.572;6.578;2022-08-19T13:45:26;34.90;37.20
31677;DHT22;18385;51.572;6.578;2022-08-19T13:47:55;35.10;36.80
31677;DHT22;18385;51.572;6.578;2022-08-19T13:50:24;35.10;36.50
31677;DHT22;18385;51.572;6.578;2022-08-19T13:52:53;35.00;35.50
31677;DHT22;18385;51.572;6.578;2022-08-19T13:55:19;35.00;35.80
31677;DHT22;18385;51.572;6.578;2022-08-19T13:57:45;35.20;35.60
31677;DHT22;18385;51.572;6.578;2022-08-19T14:00:16;35.40;34.60
31677;DHT22;18385;51.572;6.578;2022-08-19T14:02:45;35.50;34.60
31677;DHT22;18385;51.572;6.578;2022-08-19T14:05:12;35.70;34.20
31677;DHT22;18385;51.572;6.578;2022-08-19T14:07:39;36.00;34.60
31677;DHT22;18385;51.572;6.578;2022-08-19T14:10:08;36.30;33.80
31677;DHT22;18385;51.572;6.578;2022-08-19T14:12:34;36.50;32.30
31677;DHT22;18385;51.572;6.578;2022-08-19T14:15:01;35.60;31.70
31677;DHT22;18385;51.572;6.578;2022-08-19T14:17:27;35.30;32.80
31677;DHT22;18385;51.572;6.578;2022-08-19T14:20:05;35.70;32.80
31677;DHT22;18385;51.572;6.578;2022-08-19T14:22:35;36.10;32.70
31677;DHT22;18385;51.572;6.578;2022-08-19T14:25:02;36.30;31.60
31677;DHT22;18385;51.572;6.578;2022-08-19T14:27:28;36.50;30.90
31677;DHT22;18385;51.572;6.578;2022-08-19T14:29:54;36.40;30.80
31677;DHT22;18385;51.572;6.578;2022-08-19T14:32:20;36.60;30.70
31677;DHT22;18385;51.572;6.578;2022-08-19T14:34:47;36.80;30.30
31677;DHT22;18385;51.572;6.578;2022-08-19T14:37:13;36.90;30.10
31677;DHT22;18385;51.572;6.578;2022-08-19T14:39:40;37.00;29.90
31677;DHT22;18385;51.572;6.578;2022-08-19T14:42:08;37.00;29.90
31677;DHT22;18385;51.572;6.578;2022-08-19T14:44:34;37.00;30.30
31677;DHT22;18385;51.572;6.578;2022-08-19T14:47:00;37.10;29.70
31677;DHT22;18385;51.572;6.578;2022-08-19T14:49:25;37.20;29.30
31677;DHT22;18385;51.572;6.578;2022-08-19T14:51:51;37.70;29.50
31677;DHT22;18385;51.572;6.578;2022-08-19T14:54:17;38.30;29.40
31677;DHT22;18385;51.572;6.578;2022-08-19T14:56:43;38.60;28.60
31677;DHT22;18385;51.572;6.578;2022-08-19T14:59:08;38.30;28.20
31677;DHT22;18385;51.572;6.578;2022-08-19T15:01:34;38.40;28.50
31677;DHT22;18385;51.572;6.578;2022-08-19T15:04:00;38.60;28.20
31677;DHT22;18385;51.572;6.578;2022-08-19T15:06:26;38.70;28.10
31677;DHT22;18385;51.572;6.578;2022-08-19T15:08:52;38.40;28.10
31677;DHT22;18385;51.572;6.578;2022-08-19T15:11:22;37.80;27.50
31677;DHT22;18385;51.572;6.578;2022-08-19T15:13:49;37.60;28.50
31677;DHT22;18385;51.572;6.578;2022-08-19T15:16:16;38.20;28.60
31677;DHT22;18385;51.572;6.578;2022-08-19T15:18:42;38.80;28.10
31677;DHT22;18385;51.572;6.578;2022-08-19T15:21:11;39.10;27.60
31677;DHT22;18385;51.572;6.578;2022-08-19T15:23:42;39.20;27.10
31677;DHT22;18385;51.572;6.578;2022-08-19T15:26:07;39.70;27.40
31677;DHT22;18385;51.572;6.578;2022-08-19T15:28:34;39.20;26.40
31677;DHT22;18385;51.572;6.578;2022-08-19T15:31:00;38.20;26.40
31677;DHT22;18385;51.572;6.578;2022-08-19T15:33:26;37.50;27.40
31677;DHT22;18385;51.572;6.578;2022-08-19T15:35:52;36.80;27.00
31677;DHT22;18385;51.572;6.578;2022-08-19T15:38:19;35.40;27.50
31677;DHT22;18385;51.572;6.578;2022-08-19T15:40:48;34.40;28.60
31677;DHT22;18385;51.572;6.578;2022-08-19T15:43:15;34.50;29.80
31677;DHT22;18385;51.572;6.578;2022-08-19T15:45:43;35.00;29.50
31677;DHT22;18385;51.572;6.578;2022-08-19T15:48:09;34.60;29.20
31677;DHT22;18385;51.572;6.578;2022-08-19T15:50:35;34.30;30.00